Time;durP1;ratioP1;P1;durP2;ratioP2;P2;SDS_P1;SDS_P2;PMS_P1;PMS_P2;Temp;Humidity;BMP_temperature;BMP_pressure;BME280_temperature;BME280_humidity;BME280_pressure;Samples;Min_cycle;Max_cycle;Signal;HPM_P1;HPM_P2
2021/06/25 07:20:50;;;;;;;22.44;3.87;;;;;;;29.36;43.68;99845.67;369357;141;881876;-66
2021/06/25 07:21:52;;;;;;;20.23;4.84;;;;;;;29.25;43.97;99851.95;362372;146;857318;-66
2021/06/25 07:22:54;;;;;;;25.78;3.96;;;;;;;29.24;45.23;99850.26;371569;143;864958;-62
2021/06/25 07:23:56;;;;;;;24.75;4.43;;;;;;;29.27;44.91;99852.66;363138;147;865278;-67
2021/06/25 07:24:58;;;;;;;28.03;4.61;;;;;;;29.29;44.05;99845.36;364585;144;857397;-66
2021/06/25 07:25:59;;;;;;;41.15;5.41;;;;;;;29.36;43.12;99848.34;372056;144;864791;-66
2021/06/25 07:27:01;;;;;;;20.49;4.49;;;;;;;29.43;43.32;99843.31;366759;144;864940;-66
2021/06/25 07:28:04;;;;;;;27.61;4.56;;;;;;;29.51;43.61;99840.80;364857;144;864968;-65
2021/06/25 07:29:05;;;;;;;24.67;4.77;;;;;;;29.61;43.79;99842.64;366089;145;857407;-65
2021/06/25 07:30:08;;;;;;;20.15;4.63;;;;;;;29.72;44.30;99843.38;366468;145;857440;-66
2021/06/25 07:31:10;;;;;;;19.43;4.36;;;;;;;29.84;42.56;99835.23;365612;144;857456;-66
2021/06/25 07:32:13;;;;;;;30.99;4.97;;;;;;;29.98;42.48;99839.31;366565;144;858029;-65
2021/06/25 07:33:15;;;;;;;28.31;4.13;;;;;;;30.10;41.57;99834.69;367447;143;866601;-66
2021/06/25 07:34:16;;;;;;;34.46;5.55;;;;;;;30.23;42.36;99842.41;367122;144;865497;-65
2021/06/25 07:35:19;;;;;;;23.98;4.86;;;;;;;30.34;42.16;99836.09;366010;144;867830;-64
2021/06/25 07:36:21;;;;;;;25.48;4.61;;;;;;;30.48;41.54;99827.62;358797;146;865905;-65
2021/06/25 07:37:23;;;;;;;27.86;5.36;;;;;;;30.61;40.47;99832.66;358406;146;857609;-66
2021/06/25 07:38:25;;;;;;;24.56;4.49;;;;;;;30.72;41.14;99834.33;362817;146;867363;-66
2021/06/25 07:39:27;;;;;;;23.26;4.98;;;;;;;30.83;40.40;99828.80;361155;146;859247;-66
2021/06/25 07:40:29;;;;;;;31.95;4.91;;;;;;;30.91;40.28;99833.41;365346;144;865767;-65
2021/06/25 07:41:30;;;;;;;15.82;4.06;;;;;;;31.00;40.93;99832.53;367300;144;860699;-66
2021/06/25 07:42:32;;;;;;;16.61;3.15;;;;;;;31.06;40.11;99830.25;364631;144;866761;-65
2021/06/25 07:43:34;;;;;;;21.21;3.54;;;;;;;31.05;38.36;99829.39;366470;143;865123;-66
2021/06/25 07:44:36;;;;;;;16.91;3.09;;;;;;;31.08;38.41;99825.59;365991;144;865979;-66
2021/06/25 07:45:37;;;;;;;16.27;3.23;;;;;;;31.08;37.52;99825.59;366896;146;865904;-66
2021/06/25 07:46:39;;;;;;;19.46;2.96;;;;;;;31.09;37.68;99828.11;364634;144;866031;-66
2021/06/25 07:47:42;;;;;;;26.49;2.89;;;;;;;31.14;36.37;99830.34;365988;144;859817;-65
2021/06/25 07:48:44;;;;;;;18.16;3.71;;;;;;;31.17;35.99;99833.58;363949;144;865046;-66
2021/06/25 07:49:46;;;;;;;13.49;3.00;;;;;;;31.19;36.36;99836.95;364693;144;865183;-66
2021/06/25 07:50:48;;;;;;;14.55;2.94;;;;;;;31.24;36.23;99830.31;365859;143;866832;-66
2021/06/25 07:51:50;;;;;;;16.91;3.44;;;;;;;31.29;35.30;99833.41;366615;144;857603;-67
2021/06/25 07:52:52;;;;;;;18.49;3.45;;;;;;;31.35;35.41;99834.63;364807;144;863988;-67
2021/06/25 07:53:54;;;;;;;14.95;3.81;;;;;;;31.35;35.41;99834.63;369814;144;859300;-67
2021/06/25 07:54:55;;;;;;;17.69;3.26;;;;;;;31.47;36.00;99836.09;366487;144;865566;-66
2021/06/25 07:55:57;;;;;;;22.51;3.46;;;;;;;31.54;36.49;99837.16;364998;144;866609;-67
2021/06/25 07:56:59;;;;;;;22.91;3.31;;;;;;;31.60;33.82;99839.23;366299;144;864946;-64
2021/06/25 07:58:01;;;;;;;15.17;2.63;;;;;;;31.68;36.13;99840.30;365751;144;865097;-66
2021/06/25 07:59:02;;;;;;;12.15;2.21;;;;;;;31.75;33.53;99842.27;364785;144;858784;-66
2021/06/25 08:00:06;;;;;;;19.15;3.23;;;;;;;31.81;33.50;99839.97;363058;145;866531;-67
2021/06/25 08:01:08;;;;;;;18.34;3.06;;;;;;;31.89;34.57;99838.22;365048;144;860103;-64
2021/06/25 08:02:10;;;;;;;18.87;2.89;;;;;;;31.99;33.51;99832.77;359180;145;857474;-63
2021/06/25 08:03:12;;;;;;;12.95;2.30;;;;;;;32.07;31.81;99834.69;360227;146;859083;-62
2021/06/25 08:04:15;;;;;;;15.52;3.03;;;;;;;32.16;31.16;99832.89;365896;144;859670;-63
2021/06/25 08:05:16;;;;;;;17.50;3.07;;;;;;;32.31;31.08;99838.57;366514;144;858425;-64
2021/06/25 08:06:18;;;;;;;36.01;2.35;;;;;;;32.31;31.08;99838.57;365771;145;857997;-63
2021/06/25 08:07:20;;;;;;;19.85;2.98;;;;;;;32.32;30.62;99833.04;364756;147;858747;-63
2021/06/25 08:08:23;;;;;;;11.32;2.68;;;;;;;32.38;31.68;99846.84;362722;144;857473;-64
2021/06/25 08:09:24;;;;;;;16.31;2.39;;;;;;;32.45;31.12;99843.35;363237;145;859704;-62
2021/06/25 08:10:28;;;;;;;10.33;2.15;;;;;;;32.53;30.35;99837.22;363019;145;857774;-62
2021/06/25 08:11:31;;;;;;;12.34;2.42;;;;;;;32.62;29.51;99835.41;364035;144;857616;-60
2021/06/25 08:12:33;;;;;;;16.42;2.35;;;;;;;32.67;28.04;99846.49;363225;144;857456;-63
2021/06/25 08:13:34;;;;;;;11.49;1.89;;;;;;;32.72;26.96;99849.54;363765;147;866350;-62
2021/06/25 08:14:37;;;;;;;13.89;1.98;;;;;;;32.78;26.21;99845.39;365217;146;864954;-62
2021/06/25 08:15:38;;;;;;;9.99;1.41;;;;;;;32.83;24.87;99847.58;361133;146;865095;-63
2021/06/25 08:16:41;;;;;;;10.25;1.91;;;;;;;32.89;24.60;99847.00;365116;147;857525;-62
2021/06/25 08:17:43;;;;;;;8.32;1.54;;;;;;;32.93;24.80;99851.05;359415;145;866220;-62
2021/06/25 08:18:45;;;;;;;7.12;1.88;;;;;;;33.01;25.81;99851.08;363707;144;865525;-62
2021/06/25 08:19:47;;;;;;;12.95;1.65;;;;;;;33.11;24.39;99853.61;364100;146;865169;-62
2021/06/25 08:20:49;;;;;;;8.28;2.13;;;;;;;33.22;28.26;99855.17;365830;144;857597;-62
2021/06/25 08:21:51;;;;;;;13.74;2.21;;;;;;;33.30;27.67;99863.25;364498;144;858782;-62
2021/06/25 08:22:52;;;;;;;10.75;1.72;;;;;;;33.38;26.95;99856.22;363439;144;867293;-63
2021/06/25 08:23:55;;;;;;;8.33;1.76;;;;;;;33.44;27.22;99852.91;360156;147;866757;-63
2021/06/25 08:24:57;;;;;;;12.24;2.21;;;;;;;33.43;26.11;99849.41;363273;144;864753;-62
2021/06/25 08:25:58;;;;;;;12.46;1.96;;;;;;;33.45;25.87;99854.59;365019;144;859001;-62
2021/06/25 08:27:02;;;;;;;8.94;1.71;;;;;;;33.48;24.73;99848.91;361468;146;865055;-63
2021/06/25 08:28:04;;;;;;;8.53;1.98;;;;;;;33.53;23.94;99854.61;365428;147;860879;-63
2021/06/25 08:29:06;;;;;;;11.08;1.73;;;;;;;33.61;25.38;99856.48;364901;146;859111;-63
2021/06/25 08:30:09;;;;;;;10.77;1.83;;;;;;;33.65;24.96;99850.61;362672;144;857450;-63
2021/06/25 08:31:11;;;;;;;11.14;1.91;;;;;;;33.65;22.97;99844.41;363463;144;857560;-63
2021/06/25 08:32:13;;;;;;;13.84;2.04;;;;;;;33.69;24.68;99845.77;363383;146;857666;-63
2021/06/25 08:33:15;;;;;;;7.96;1.54;;;;;;;33.75;24.07;99845.09;362434;145;865065;-62
2021/06/25 08:34:17;;;;;;;9.94;2.12;;;;;;;33.82;24.41;99847.94;363974;146;865894;-62
2021/06/25 08:35:18;;;;;;;13.96;2.14;;;;;;;33.86;23.15;99837.72;365017;146;859774;-63
2021/06/25 08:36:24;;;;;;;12.65;2.17;;;;;;;33.93;22.92;99844.98;363088;144;866842;-63
2021/06/25 08:37:25;;;;;;;15.41;2.19;;;;;;;34.03;23.43;99846.66;363259;146;865060;-63
2021/06/25 08:38:27;;;;;;;15.22;2.39;;;;;;;34.13;24.84;99849.16;364967;145;865932;-63
2021/06/25 08:39:30;;;;;;;15.75;3.42;;;;;;;34.12;23.56;99840.28;362100;146;859931;-63
2021/06/25 08:40:34;;;;;;;15.28;2.36;;;;;;;34.12;24.79;99840.28;363872;144;865086;-63
2021/06/25 08:41:37;;;;;;;17.53;2.89;;;;;;;34.11;23.95;99845.80;371165;145;857482;-63
2021/06/25 08:42:38;;;;;;;9.38;2.50;;;;;;;34.12;26.00;99839.42;365135;144;859327;-63
2021/06/25 08:43:40;;;;;;;21.09;2.61;;;;;;;34.12;25.74;99837.59;361627;145;857555;-63
2021/06/25 08:44:42;;;;;;;12.68;2.63;;;;;;;34.15;27.35;99836.40;366710;146;858807;-63
2021/06/25 08:45:44;;;;;;;19.31;3.18;;;;;;;34.19;25.64;99829.68;365770;145;865481;-63
2021/06/25 08:46:47;;;;;;;10.54;2.24;;;;;;;34.22;25.41;99832.02;361807;143;859530;-64
2021/06/25 08:47:50;;;;;;;12.83;2.54;;;;;;;34.25;23.92;99830.86;363880;146;860907;-62
2021/06/25 08:48:53;;;;;;;14.11;2.61;;;;;;;34.29;23.74;99824.14;365526;147;857635;-62
2021/06/25 08:49:55;;;;;;;14.67;2.68;;;;;;;34.32;24.70;99818.42;364288;144;857650;-62
2021/06/25 08:50:58;;;;;;;20.95;2.97;;;;;;;34.34;23.02;99819.91;364536;145;858956;-61
2021/06/25 08:52:00;;;;;;;16.33;2.28;;;;;;;34.38;23.54;99823.11;361640;147;857464;-62
2021/06/25 08:53:02;;;;;;;12.81;2.06;;;;;;;34.42;24.01;99816.38;365286;144;858946;-62
2021/06/25 08:54:03;;;;;;;15.00;1.99;;;;;;;;;;364122;144;864765;-62
2021/06/25 08:55:06;;;;;;;10.76;1.75;;;;;;;;;;365016;146;865988;-62
2021/06/25 08:56:08;;;;;;;9.57;2.21;;;;;;;;;;358882;150;865128;-62
2021/06/25 08:57:10;;;;;;;14.78;2.25;;;;;;;;;;360790;146;866116;-62
2021/06/25 08:58:12;;;;;;;9.36;1.58;;;;;;;;;;363764;144;859755;-63
2021/06/25 08:59:22;;;;;;;10.23;1.80;;;;;;;;;;364019;147;863367;-62
2021/06/25 09:00:21;;;;;;;15.62;2.04;;;;;;;;;;361922;145;857713;-62
2021/06/25 09:01:23;;;;;;;12.11;1.84;;;;;;;;;;363588;146;857528;-62
2021/06/25 09:02:26;;;;;;;13.74;2.43;;;;;;;;;;362823;147;859085;-62
2021/06/25 09:03:29;;;;;;;15.68;2.16;;;;;;;;;;362845;147;865086;-62
2021/06/25 09:04:32;;;;;;;12.65;2.18;;;;;;;;;;360476;143;858510;-62
2021/06/25 09:05:34;;;;;;;12.13;2.56;;;;;;;;;;359240;147;858971;-62
2021/06/25 09:06:38;;;;;;;19.60;2.33;;;;;;;;;;358726;147;857526;-62
2021/06/25 09:07:43;;;;;;;14.46;2.44;;;;;;;;;;361575;144;857729;-62
2021/06/25 09:08:45;;;;;;;10.67;2.00;;;;;;;;;;362999;144;859186;-62
2021/06/25 09:09:47;;;;;;;10.17;2.53;;;;;;;;;;364024;145;857723;-62
2021/06/25 09:10:49;;;;;;;14.51;2.33;;;;;;;;;;363626;147;857646;-62
2021/06/25 09:12:09;;;;;;;14.21;2.19;;;;;;;;;;363358;144;862109;-62
2021/06/25 09:13:11;;;;;;;12.08;2.22;;;;;;;;;;363824;147;857837;-62
2021/06/25 09:14:13;;;;;;;8.60;2.11;;;;;;;;;;364062;147;857632;-62
2021/06/25 09:15:15;;;;;;;8.89;1.93;;;;;;;;;;355848;148;864746;-62
2021/06/25 09:16:25;;;;;;;15.75;2.22;;;;;;;;;;354735;148;857614;-63
2021/06/25 09:17:27;;;;;;;11.37;2.49;;;;;;;;;;356498;148;857441;-62
2021/06/25 09:18:29;;;;;;;12.95;2.04;;;;;;;;;;355858;148;859066;-62
2021/06/25 09:19:31;;;;;;;10.24;1.99;;;;;;;;;;354883;148;859000;-62
2021/06/25 09:20:36;;;;;;;16.07;2.07;;;;;;;;;;358086;148;857431;-62
2021/06/25 09:21:39;;;;;;;12.91;2.30;;;;;;;;;;362490;145;858748;-62
2021/06/25 09:22:50;;;;;;;16.41;2.65;;;;;;;;;;361819;144;858946;-62
2021/06/25 09:23:51;;;;;;;20.35;3.21;;;;;;;;;;363038;144;857737;-62
2021/06/25 09:25:04;;;;;;;9.35;2.12;;;;;;;;;;355848;146;859346;-62
2021/06/25 09:26:07;;;;;;;9.63;1.89;;;;;;;;;;355243;149;859001;-62
2021/06/25 09:27:09;;;;;;;14.45;2.39;;;;;;;;;;354543;148;858911;-62
2021/06/25 09:28:10;;;;;;;11.96;2.39;;;;;;;;;;353643;150;858239;-61
2021/06/25 09:29:13;;;;;;;13.17;2.09;;;;;;;;;;354357;146;864921;-62
2021/06/25 09:30:16;;;;;;;10.95;2.13;;;;;;;;;;359251;146;866794;-62
2021/06/25 09:31:19;;;;;;;12.82;2.14;;;;;;;;;;357758;146;858513;-62
2021/06/25 09:32:20;;;;;;;15.53;2.88;;;;;;;;;;357223;147;858743;-62
2021/06/25 09:33:22;;;;;;;21.06;1.97;;;;;;;;;;355432;149;865823;-62
2021/06/25 09:34:33;;;;;;;11.17;1.90;;;;;;;;;;352830;146;857448;-62
2021/06/25 09:35:35;;;;;;;9.86;2.02;;;;;;;;;;353862;146;857652;-62
2021/06/25 09:36:40;;;;;;;9.41;1.58;;;;;;;;;;354902;147;857464;-64
2021/06/25 09:37:43;;;;;;;9.32;1.96;;;;;;;;;;359376;146;867296;-64
2021/06/25 09:38:44;;;;;;;10.49;1.86;;;;;;;;;;352541;150;857994;-63
2021/06/25 09:39:48;;;;;;;10.99;1.89;;;;;;;;;;355542;147;858612;-64
2021/06/25 09:40:50;;;;;;;14.90;2.38;;;;;;;;;;350130;151;857619;-64
2021/06/25 09:41:52;;;;;;;9.02;1.63;;;;;;;;;;357767;146;856749;-62
2021/06/25 09:43:10;;;;;;;10.62;2.09;;;;;;;;;;354371;147;857699;-62
2021/06/25 09:44:16;;;;;;;8.13;2.16;;;;;;;;;;354648;148;857647;-61
2021/06/25 09:45:19;;;;;;;8.13;1.93;;;;;;;;;;354478;151;857578;-62
2021/06/25 09:46:25;;;;;;;9.76;1.39;;;;;;;;;;355022;146;857595;-62
2021/06/25 09:47:28;;;;;;;7.71;1.86;;;;;;;;;;356395;148;859321;-61
2021/06/25 09:48:49;;;;;;;10.12;1.99;;;;;;;;;;347933;150;857796;-62
2021/06/25 09:49:50;;;;;;;12.13;2.21;;;;;;;;;;348351;150;866725;-63
2021/06/25 09:50:52;;;;;;;11.20;1.77;;;;;;;;;;352792;147;856863;-62
2021/06/25 09:51:56;;;;;;;12.11;2.08;;;;;;;;;;353694;148;860114;-62
2021/06/25 09:53:03;;;;;;;14.33;1.86;;;;;;;;;;349298;150;864756;-61
2021/06/25 09:54:10;;;;;;;8.97;2.02;;;;;;;;;;350215;150;857517;-62
2021/06/25 09:55:11;;;;;;;15.18;1.84;;;;;;;;;;350304;153;859268;-62
2021/06/25 09:56:24;;;;;;;9.93;1.94;;;;;;;;;;355729;148;857692;-62
2021/06/25 09:57:28;;;;;;;11.83;2.34;;;;;;;;;;353909;147;857490;-62
2021/06/25 10:02:18;;;;;;;13.18;2.26;;;;;;;;;;349574;152;859324;-63
2021/06/25 10:03:20;;;;;;;15.93;2.47;;;;;;;;;;351715;150;859403;-63
2021/06/25 10:04:36;;;;;;;11.81;2.39;;;;;;;;;;356674;146;868521;-63
2021/06/25 10:05:38;;;;;;;12.29;1.97;;;;;;;;;;355813;146;865993;-63
2021/06/25 10:06:41;;;;;;;9.30;2.49;;;;;;;;;;360497;146;857699;-62
2021/06/25 10:07:43;;;;;;;9.54;2.22;;;;;;;;;;355280;148;857898;-63
2021/06/25 10:08:45;;;;;;;7.01;1.67;;;;;;;;;;357122;146;857814;-63
2021/06/25 10:09:47;;;;;;;7.94;2.28;;;;;;;;;;359115;146;859886;-63
2021/06/25 10:10:49;;;;;;;10.99;2.06;;;;;;;;;;354187;146;865624;-63
2021/06/25 10:11:51;;;;;;;16.97;1.89;;;;;;;;;;358153;146;864359;-63
2021/06/25 10:12:52;;;;;;;11.13;2.22;;;;;;;;;;356461;142;856211;-63
2021/06/25 10:13:55;;;;;;;7.72;1.60;;;;;;;;;;366035;146;866022;-63
2021/06/25 10:14:57;;;;;;;8.87;1.86;;;;;;;;;;367576;144;858829;-63
2021/06/25 10:15:58;;;;;;;8.64;1.90;;;;;;;;;;368512;146;864999;-62
2021/06/25 10:17:00;;;;;;;5.76;1.59;;;;;;;;;;364055;145;858904;-62
2021/06/25 10:18:01;;;;;;;13.38;2.19;;;;;;;;;;366757;143;864933;-62
2021/06/25 10:19:03;;;;;;;12.14;2.03;;;;;;;;;;365997;144;857546;-62
2021/06/25 10:20:10;;;;;;;11.56;2.23;;;;;;;;;;367829;145;859159;-62
2021/06/25 10:21:12;;;;;;;9.15;1.90;;;;;;;;;;366605;146;868431;-62
2021/06/25 10:22:15;;;;;;;4.99;1.81;;;;;;;;;;367539;145;859369;-62
2021/06/25 10:23:17;;;;;;;14.05;2.36;;;;;;;;;;366197;145;857518;-62
2021/06/25 10:24:18;;;;;;;9.90;2.12;;;;;;;;;;367107;146;861315;-61
2021/06/25 10:25:20;;;;;;;12.56;2.09;;;;;;;;;;367545;144;857570;-64
2021/06/25 10:26:23;;;;;;;11.29;2.29;;;;;;;;;;358377;147;865498;-62
2021/06/25 10:27:25;;;;;;;9.50;2.07;;;;;;;;;;353220;148;865007;-62
2021/06/25 10:28:26;;;;;;;11.56;2.21;;;;;;;;;;361565;145;857511;-62
2021/06/25 10:29:28;;;;;;;9.74;2.25;;;;;;;;;;357833;146;857680;-62
2021/06/25 10:30:31;;;;;;;10.41;2.01;;;;;;;;;;353619;150;857662;-62
2021/06/25 10:31:33;;;;;;;16.11;2.34;;;;;;;;;;353681;150;857616;-62
2021/06/25 10:32:38;;;;;;;13.74;1.88;;;;;;;;;;361456;146;859179;-62
2021/06/25 10:33:40;;;;;;;11.75;1.76;;;;;;;;;;361877;146;857500;-63
2021/06/25 10:34:43;;;;;;;10.25;2.02;;;;;;;;;;362258;146;857680;-62
2021/06/25 10:35:45;;;;;;;7.91;1.58;;;;;;;;;;360866;146;859250;-62
2021/06/25 10:36:48;;;;;;;6.97;1.98;;;;;;;;;;360739;147;857628;-62
2021/06/25 10:37:50;;;;;;;8.91;1.92;;;;;;;;;;359495;148;866919;-62
2021/06/25 10:38:53;;;;;;;10.30;1.98;;;;;;;;;;359809;144;859280;-62
2021/06/25 10:39:54;;;;;;;7.64;1.94;;;;;;;;;;360220;147;858657;-62
2021/06/25 10:40:58;;;;;;;12.94;2.06;;;;;;;;;;361647;146;859205;-62
2021/06/25 10:42:02;;;;;;;10.06;1.94;;;;;;;;;;360317;146;867208;-62
2021/06/25 10:43:04;;;;;;;10.51;2.03;;;;;;;;;;360761;147;859342;-62
2021/06/25 10:44:06;;;;;;;10.27;1.74;;;;;;;;;;361169;146;859273;-62
2021/06/25 10:45:08;;;;;;;10.95;1.79;;;;;;;;;;359377;146;857502;-61
2021/06/25 10:46:32;;;;;;;9.07;2.13;;;;;;;;;;361252;146;864945;-61
2021/06/25 10:47:34;;;;;;;14.79;2.07;;;;;;;;;;359098;146;858598;-61
2021/06/25 10:48:36;;;;;;;10.76;2.07;;;;;;;;;;359874;143;857591;-62
2021/06/25 10:49:57;;;;;;;8.91;2.40;;;;;;;;;;361857;147;857529;-61
2021/06/25 10:51:00;;;;;;;16.75;2.37;;;;;;;;;;361417;146;865999;-63
2021/06/25 10:52:09;;;;;;;14.11;2.41;;;;;;;;;;362321;146;857467;-62
2021/06/25 10:53:16;;;;;;;10.69;2.20;;;;;;;;;;360103;147;857530;-64
2021/06/25 10:54:21;;;;;;;10.56;2.18;;;;;;;;;;348212;151;858368;-63
2021/06/25 10:55:24;;;;;;;10.00;2.33;;;;;;;;;;348969;149;857617;-63
2021/06/25 10:56:25;;;;;;;12.75;2.58;;;;;;;;;;360290;146;865640;-62
2021/06/25 10:57:28;;;;;;;11.71;2.41;;;;;;;;;;360003;147;864850;-63
2021/06/25 10:58:31;;;;;;;13.19;2.19;;;;;;;;;;360558;148;858895;-63
2021/06/25 10:59:34;;;;;;;8.72;1.98;;;;;;;;;;360572;147;859346;-63
2021/06/25 11:00:41;;;;;;;17.27;2.44;;;;;;;;;;361397;146;859328;-63
2021/06/25 11:01:45;;;;;;;11.79;2.12;;;;;;;;;;361362;146;865699;-63
2021/06/25 11:02:47;;;;;;;10.38;2.39;;;;;;;;;;359698;146;858594;-63
2021/06/25 11:03:48;;;;;;;11.92;2.51;;;;;;;;;;362111;146;858676;-63
2021/06/25 11:04:50;;;;;;;6.36;2.07;;;;;;;;;;359583;147;857701;-62
2021/06/25 11:05:52;;;;;;;13.67;2.36;;;;;;;;;;360207;146;860509;-62
2021/06/25 11:06:54;;;;;;;10.93;2.56;;;;;;;;;;360793;146;857807;-61
2021/06/25 11:07:57;;;;;;;6.89;2.17;;;;;;;;;;360976;146;858437;-62
2021/06/25 11:09:01;;;;;;;9.49;2.10;;;;;;;;;;360410;147;859048;-62
2021/06/25 11:10:04;;;;;;;12.78;2.90;;;;;;;;;;359769;146;859426;-62
2021/06/25 11:11:06;;;;;;;10.39;2.48;;;;;;;;;;360507;146;857633;-62
2021/06/25 11:12:19;;;;;;;14.41;2.77;;;;;;;;;;360976;146;858060;-61
2021/06/25 11:13:22;;;;;;;8.76;1.72;;;;;;;;;;360491;146;857484;-62
2021/06/25 11:14:25;;;;;;;12.31;1.97;;;;;;;;;;362105;145;857552;-62
2021/06/25 11:15:31;;;;;;;9.70;1.97;;;;;;;;;;363336;146;864929;-62
2021/06/25 11:16:34;;;;;;;13.88;2.54;;;;;;;;;;361537;146;859571;-62
2021/06/25 11:17:55;;;;;;;11.84;2.09;;;;;;;;;;362004;146;858099;-62
2021/06/25 11:18:59;;;;;;;15.00;1.81;;;;;;;;;;359338;147;864978;-61
2021/06/25 11:20:17;;;;;;;13.00;1.99;;;;;;;;;;359383;147;859671;-61
2021/06/25 11:21:19;;;;;;;13.28;2.15;;;;;;;;;;361070;146;857933;-61
2021/06/25 11:22:39;;;;;;;12.71;1.88;;;;;;;;;;361215;146;857596;-61
2021/06/25 11:23:41;;;;;;;;;;;;;;;;;;363803;146;865309;-64
2021/06/25 11:24:47;;;;;;;11.12;2.07;;;;;;;;;;362433;147;857566;-64
2021/06/25 11:25:56;;;;;;;10.23;1.83;;;;;;;;;;360126;148;859971;-61
2021/06/25 11:26:58;;;;;;;6.71;1.71;;;;;;;;;;361452;146;857953;-62
2021/06/25 11:28:26;;;;;;;19.60;2.41;;;;;;;;;;361346;144;859271;-62
2021/06/25 11:29:45;;;;;;;17.24;2.36;;;;;;;;;;362493;146;857458;-62
2021/06/25 11:30:59;;;;;;;8.80;2.46;;;;;;;;;;361398;145;857940;-63
2021/06/25 11:32:08;;;;;;;10.86;2.04;;;;;;;;;;362026;146;857723;-62
2021/06/25 11:33:27;;;;;;;12.99;2.04;;;;;;;;;;359091;146;857460;-63
2021/06/25 11:34:30;;;;;;;7.70;1.69;;;;;;;;;;355439;148;858343;-62
2021/06/25 11:35:36;;;;;;;6.53;1.59;;;;;;;;;;355950;148;860541;-62
2021/06/25 11:36:43;;;;;;;8.49;1.74;;;;;;;;;;361938;146;864768;-61
2021/06/25 11:37:55;;;;;;;8.56;1.89;;;;;;;;;;361399;146;860265;-62
2021/06/25 11:38:59;;;;;;;8.54;1.79;;;;;;;;;;362081;146;857633;-62
2021/06/25 11:40:01;;;;;;;9.72;1.78;;;;;;;;;;360489;146;856729;-63
2021/06/25 11:41:02;;;;;;;7.04;2.00;;;;;;;;;;362287;146;864769;-63
2021/06/25 11:42:12;;;;;;;11.56;1.50;;;;;;;;;;363487;146;860896;-63
2021/06/25 11:43:14;;;;;;;15.69;2.14;;;;;;;;;;361098;145;859356;-62
2021/06/25 11:44:18;;;;;;;11.75;1.99;;;;;;;;;;351424;149;857566;-62
2021/06/25 11:45:22;;;;;;;10.25;1.99;;;;;;;;;;353857;149;857529;-62
2021/06/25 11:46:25;;;;;;;8.59;1.74;;;;;;;;;;352377;149;857715;-63
2021/06/25 11:47:29;;;;;;;6.55;1.74;;;;;;;;;;354204;149;857595;-63
2021/06/25 11:48:33;;;;;;;8.64;2.00;;;;;;;;;;352403;149;858314;-63
2021/06/25 11:49:39;;;;;;;9.61;1.97;;;;;;;;;;354244;150;857518;-63
2021/06/25 11:50:41;;;;;;;11.47;1.93;;;;;;;;;;352585;150;864853;-63
2021/06/25 11:51:43;;;;;;;10.84;2.40;;;;;;;;;;354035;148;860333;-63
2021/06/25 11:52:45;;;;;;;7.21;1.86;;;;;;;;;;354775;149;857678;-63
2021/06/25 11:53:47;;;;;;;9.58;2.13;;;;;;;;;;355086;149;864988;-63
2021/06/25 11:54:52;;;;;;;15.15;1.95;;;;;;;;;;357202;149;864957;-63
2021/06/25 11:55:55;;;;;;;8.58;1.74;;;;;;;;;;354455;149;865707;-63
2021/06/25 11:56:58;;;;;;;12.94;2.32;;;;;;;;;;352834;149;858250;-63
2021/06/25 11:57:59;;;;;;;11.14;1.69;;;;;;;;;;355703;149;865775;-63
2021/06/25 11:59:03;;;;;;;6.76;2.34;;;;;;;;;;356328;149;857690;-63
2021/06/25 12:03:42;;;;;;;13.76;1.94;;;;;;;;;;359815;144;858015;-64
2021/06/25 12:04:44;;;;;;;9.17;2.18;;;;;;;;;;360964;146;857975;-61
2021/06/25 12:05:45;;;;;;;10.35;1.87;;;;;;;;;;360926;147;857878;-65
2021/06/25 12:06:51;;;;;;;7.26;1.94;;;;;;;;;;362352;146;857727;-64
2021/06/25 12:08:00;;;;;;;9.02;2.06;;;;;;;;;;361735;144;863968;-63
2021/06/25 12:09:06;;;;;;;8.13;1.89;;;;;;;;;;361527;144;857876;-62
2021/06/25 12:10:06;;;;;;;9.49;1.97;;;;;;;;;;362943;147;857473;-63
2021/06/25 12:11:08;;;;;;;8.39;1.83;;;;;;;;;;362831;148;864904;-64
2021/06/25 12:12:10;;;;;;;6.89;1.47;;;;;;;;;;362295;144;859492;-63
2021/06/25 12:13:12;;;;;;;8.41;1.94;;;;;;;;;;360444;146;858055;-62
2021/06/25 12:14:14;;;;;;;9.76;1.78;;;;;;;;;;362293;144;857601;-65
2021/06/25 12:15:16;;;;;;;10.54;1.74;;;;;;;;;;362039;144;858884;-62
2021/06/25 12:16:18;;;;;;;9.54;1.66;;;;;;;;;;361771;144;864914;-65
2021/06/25 12:17:19;;;;;;;7.40;1.46;;;;;;;;;;362708;146;864860;-64
2021/06/25 12:18:25;;;;;;;9.07;1.71;;;;;;;;;;362326;146;857992;-64
2021/06/25 12:19:26;;;;;;;6.82;2.03;;;;;;;;;;360988;144;866359;-66
2021/06/25 12:20:29;;;;;;;8.82;1.85;;;;;;;;;;362000;146;857572;-64
2021/06/25 12:21:30;;;;;;;9.83;2.36;;;;;;;;;;361595;146;864932;-63
2021/06/25 12:22:34;;;;;;;12.30;2.35;;;;;;;;;;361306;146;857446;-63
2021/06/25 12:23:56;;;;;;;8.22;2.13;;;;;;;;;;363360;143;857828;-63
2021/06/25 12:24:58;;;;;;;13.88;2.17;;;;;;;;;;342410;154;858555;-62
2021/06/25 12:25:59;;;;;;;8.69;1.96;;;;;;;;;;341730;153;857564;-62
2021/06/25 12:27:01;;;;;;;4.86;2.18;;;;;;;;;;335591;157;864489;-62
2021/06/25 12:28:07;;;;;;;11.28;2.29;;;;;;;;;;336917;156;864778;-62
2021/06/25 12:29:08;;;;;;;8.64;2.36;;;;;;;;;;341118;152;857571;-62
2021/06/25 12:30:12;;;;;;;13.24;2.51;;;;;;;;;;342564;153;859142;-62
2021/06/25 12:31:20;;;;;;;8.04;2.15;;;;;;;;;;343583;153;864770;-62
2021/06/25 12:32:20;;;;;;;11.24;2.25;;;;;;;;;;342400;152;858844;-62
2021/06/25 12:33:23;;;;;;;12.42;2.19;;;;;;;;;;343564;152;857587;-63
2021/06/25 12:34:25;;;;;;;9.10;2.13;;;;;;;;;;343647;152;864949;-63
2021/06/25 12:35:31;;;;;;;11.40;2.30;;;;;;;;;;340941;153;859199;-63
2021/06/25 12:36:33;;;;;;;9.47;2.23;;;;;;;;;;341721;155;864736;-63
2021/06/25 12:37:49;;;;;;;9.72;1.95;;;;;;;;;;343460;153;861426;-63
2021/06/25 12:38:55;;;;;;;5.59;1.87;;;;;;;;;;343997;153;857602;-63
2021/06/25 12:39:54;;;;;;;11.83;2.17;;;;;;;;;;341604;152;857744;-61
2021/06/25 12:41:02;;;;;;;8.50;2.17;;;;;;;;;;342352;155;859713;-62
2021/06/25 12:42:05;;;;;;;8.18;1.85;;;;;;;;;;344053;156;864707;-62
2021/06/25 12:43:08;;;;;;;6.78;2.11;;;;;;;;;;343219;155;857655;-62
2021/06/25 12:44:10;;;;;;;4.39;1.75;;;;;;;;;;342306;154;859633;-62
2021/06/25 12:45:12;;;;;;;10.23;2.08;;;;;;;;;;339517;155;857568;-62
2021/06/25 12:46:19;;;;;;;10.28;1.91;;;;;;;;;;341672;155;857745;-63
2021/06/25 12:47:20;;;;;;;9.39;2.28;;;;;;;;;;342417;154;857658;-62
2021/06/25 12:48:23;;;;;;;7.39;2.01;;;;;;;;;;342326;155;857542;-62
2021/06/25 12:49:25;;;;;;;6.43;2.00;;;;;;;;;;342464;157;864970;-63
2021/06/25 12:50:27;;;;;;;8.14;1.88;;;;;;;;;;341722;154;864832;-63
2021/06/25 12:51:29;;;;;;;8.82;1.96;;;;;;;;;;341794;154;857585;-63
2021/06/25 12:52:33;;;;;;;8.03;2.25;;;;;;;;;;341369;155;859186;-63
2021/06/25 12:53:35;;;;;;;7.59;1.89;;;;;;;;;;340483;154;857592;-63
2021/06/25 12:54:37;;;;;;;8.87;2.15;;;;;;;;;;341437;154;857719;-63
2021/06/25 12:55:38;;;;;;;8.00;2.11;;;;;;;;;;342042;155;857617;-63
2021/06/25 12:56:43;;;;;;;10.09;2.14;;;;;;;;;;342413;157;858677;-63
2021/06/25 12:57:45;;;;;;;8.61;2.00;;;;;;;;;;341994;154;857702;-63
2021/06/25 12:58:50;;;;;;;6.25;2.11;;;;;;;;;;341166;155;857666;-63
2021/06/25 12:59:52;;;;;;;8.77;2.63;;;;;;;;;;340516;155;865772;-62
2021/06/25 13:00:58;;;;;;;14.33;2.73;;;;;;;;;;342123;154;857686;-63
2021/06/25 13:01:59;;;;;;;18.09;3.00;;;;;;;;;;341104;154;859788;-63
2021/06/25 13:03:01;;;;;;;8.35;2.16;;;;;;;;;;342222;157;864980;-62
2021/06/25 13:04:03;;;;;;;5.81;1.83;;;;;;;;;;342302;154;865254;-63
2021/06/25 13:05:05;;;;;;;7.81;1.78;;;;;;;;;;341038;154;864901;-63
2021/06/25 13:06:26;;;;;;;8.76;2.33;;;;;;;;;;341863;155;866058;-63
2021/06/25 13:07:28;;;;;;;8.85;1.82;;;;;;;;;;342427;154;857608;-63
2021/06/25 13:08:30;;;;;;;10.41;2.09;;;;;;;;;;342899;154;857755;-63
2021/06/25 13:09:34;;;;;;;11.01;2.09;;;;;;;;;;341631;155;866826;-63
2021/06/25 13:10:37;;;;;;;11.77;1.90;;;;;;;;;;340640;154;865377;-62
2021/06/25 13:11:39;;;;;;;8.21;2.05;;;;;;;;;;340691;154;858548;-62
2021/06/25 13:12:41;;;;;;;14.19;2.33;;;;;;;;;;343068;154;864731;-62
2021/06/25 13:13:42;;;;;;;10.36;2.18;;;;;;;;;;338511;155;864758;-62
2021/06/25 13:14:55;;;;;;;9.87;2.58;;;;;;;;;;339179;155;864997;-62